createdAt,value
2017-02-20T00:00:33.424Z,30.08
2017-02-20T00:01:42.990Z,30.18
2017-02-20T00:02:52.951Z,30.18
2017-02-20T00:04:02.544Z,29.99
2017-02-20T00:05:12.514Z,29.99
2017-02-20T00:06:22.097Z,29.99
2017-02-20T00:07:32.054Z,30.38
2017-02-20T00:08:41.998Z,30.38
2017-02-20T00:09:51.186Z,30.28
2017-02-20T00:11:00.722Z,30.38
2017-02-20T00:12:10.249Z,29.99
2017-02-20T00:13:19.430Z,30.28
2017-02-20T00:14:29.004Z,30.38
2017-02-20T00:15:38.969Z,30.38
2017-02-20T00:16:48.145Z,29.99
2017-02-20T00:17:58.087Z,29.99
2017-02-20T00:19:07.663Z,30.38
2017-02-20T00:20:16.846Z,29.9
2017-02-20T00:21:26.794Z,29.9
2017-02-20T00:22:37.113Z,30.28
2017-02-20T00:23:46.242Z,30.28
2017-02-20T00:24:56.218Z,30.38
2017-02-20T00:26:06.167Z,30.38
2017-02-20T00:27:15.707Z,30.46
2017-02-20T00:28:25.225Z,30.46
2017-02-20T00:29:34.795Z,30.38
2017-02-20T00:30:44.317Z,30.46
2017-02-20T00:31:54.227Z,30.28
2017-02-20T00:33:03.788Z,30.28
2017-02-20T00:34:13.751Z,30.38
2017-02-20T00:35:23.330Z,30.38
2017-02-20T00:36:32.897Z,30.38
2017-02-20T00:37:42.092Z,30.57
2017-02-20T00:38:51.658Z,30.38
2017-02-20T00:40:01.202Z,30.18
2017-02-20T00:41:10.348Z,30.66
2017-02-20T00:42:20.281Z,30.65
2017-02-20T00:43:29.463Z,30.66
2017-02-20T00:44:39.050Z,30.36
2017-02-20T00:45:48.631Z,30.17
2017-02-20T00:46:59.363Z,30.17
2017-02-20T00:48:09.696Z,30.36
2017-02-20T00:49:19.627Z,30.36
2017-02-20T00:50:30.114Z,30.27
2017-02-20T00:51:39.299Z,30.46
2017-02-20T00:52:48.065Z,30.27
2017-02-20T00:53:57.967Z,30.36
2017-02-20T00:55:07.534Z,30.55
2017-02-20T00:56:17.092Z,30.55
2017-02-20T00:57:26.654Z,30.55
2017-02-20T00:58:36.610Z,30.75
2017-02-20T00:59:45.767Z,30.75
2017-02-20T01:00:55.308Z,30.65
2017-02-20T01:02:04.866Z,30.55
2017-02-20T01:03:14.425Z,30.65
2017-02-20T01:04:23.612Z,30.65
2017-02-20T01:05:32.810Z,30.55
2017-02-20T01:06:42.775Z,30.75
2017-02-20T01:07:52.363Z,30.55
2017-02-20T01:09:02.292Z,30.65
2017-02-20T01:10:12.964Z,30.55
2017-02-20T01:11:22.920Z,30.46
2017-02-20T01:12:32.859Z,30.65
2017-02-20T01:13:43.188Z,30.55
2017-02-20T01:14:53.489Z,30.36
2017-02-20T01:16:03.414Z,30.46
2017-02-20T01:17:13.324Z,30.94
2017-02-20T01:18:23.494Z,30.75
2017-02-20T01:19:33.075Z,30.46
2017-02-20T01:20:42.238Z,30.46
2017-02-20T01:21:52.195Z,30.46
2017-02-20T01:23:01.381Z,30.46
2017-02-20T01:24:11.313Z,30.75
2017-02-20T01:25:20.478Z,30.75
2017-02-20T01:26:30.050Z,30.85
2017-02-20T01:27:38.855Z,30.55
2017-02-20T01:28:48.413Z,30.46
2017-02-20T01:29:58.382Z,30.65
2017-02-20T01:31:07.192Z,30.46
2017-02-20T01:32:17.880Z,30.85
2017-02-20T01:33:27.409Z,30.65
2017-02-20T01:34:36.979Z,30.75
2017-02-20T01:35:47.308Z,30.85
2017-02-20T01:36:57.612Z,30.75
2017-02-20T01:38:07.121Z,30.75
2017-02-20T01:39:16.693Z,30.75
2017-02-20T01:40:26.229Z,30.85
2017-02-20T01:41:36.568Z,30.75
2017-02-20T01:42:46.487Z,30.85
2017-02-20T01:43:56.048Z,30.55
2017-02-20T01:45:06.005Z,30.75
2017-02-20T01:46:15.966Z,30.85
2017-02-20T01:47:26.293Z,30.55
2017-02-20T01:48:35.804Z,30.85
2017-02-20T01:49:45.363Z,30.85
2017-02-20T01:50:54.938Z,30.75
2017-02-20T01:52:04.493Z,30.75
2017-02-20T01:53:14.067Z,30.85
2017-02-20T01:54:23.637Z,30.75
2017-02-20T01:55:33.185Z,30.85
2017-02-20T01:56:43.123Z,30.85
2017-02-20T01:57:52.294Z,30.65
2017-02-20T01:59:01.457Z,30.75
2017-02-20T02:00:11.044Z,30.75
2017-02-20T02:01:20.216Z,30.75
2017-02-20T02:02:29.834Z,30.65
2017-02-20T02:03:40.146Z,30.63
2017-02-20T02:04:50.038Z,30.65
2017-02-20T02:05:59.986Z,30.65
2017-02-20T02:07:09.540Z,30.55
2017-02-20T02:08:18.358Z,30.65
2017-02-20T02:09:28.301Z,30.65
2017-02-20T02:10:37.497Z,31.23
2017-02-20T02:11:47.027Z,30.63
2017-02-20T02:12:56.939Z,31.22
2017-02-20T02:14:06.493Z,30.65
2017-02-20T02:15:16.033Z,30.65
2017-02-20T02:16:24.806Z,31.12
2017-02-20T02:17:33.995Z,30.44
2017-02-20T02:18:43.210Z,31.33
2017-02-20T02:19:53.540Z,31.12
2017-02-20T02:21:03.110Z,30.55
2017-02-20T02:22:12.696Z,30.54
2017-02-20T02:23:21.872Z,30.54
2017-02-20T02:24:31.434Z,30.94
2017-02-20T02:25:41.780Z,30.54
2017-02-20T02:26:52.496Z,30.55
2017-02-20T02:28:02.056Z,31.23
2017-02-20T02:29:12.397Z,30.54
2017-02-20T02:30:22.360Z,31.22
2017-02-20T02:31:32.703Z,30.54
2017-02-20T02:32:42.297Z,30.54
2017-02-20T02:33:52.634Z,30.54
2017-02-20T02:35:01.749Z,31.02
2017-02-20T02:36:12.050Z,30.54
2017-02-20T02:37:21.997Z,30.93
2017-02-20T02:38:32.699Z,30.93
2017-02-20T02:39:41.844Z,30.93
2017-02-20T02:40:51.035Z,30.93
2017-02-20T02:41:59.840Z,30.54
2017-02-20T02:43:08.994Z,31.22
2017-02-20T02:44:18.527Z,30.54
2017-02-20T02:45:28.454Z,30.54
2017-02-20T02:46:37.642Z,30.73
2017-02-20T02:47:47.583Z,30.83
2017-02-20T02:48:57.162Z,30.93
2017-02-20T02:50:07.125Z,30.83
2017-02-20T02:51:16.669Z,30.93
2017-02-20T02:52:26.204Z,30.93
2017-02-20T02:53:35.756Z,30.93
2017-02-20T02:54:44.930Z,30.93
2017-02-20T02:55:54.518Z,30.93
2017-02-20T02:57:03.694Z,30.54
2017-02-20T02:58:12.865Z,30.54
2017-02-20T02:59:22.049Z,30.54
2017-02-20T03:00:32.015Z,30.63
2017-02-20T03:01:42.353Z,30.63
2017-02-20T03:02:51.898Z,30.63
2017-02-20T03:04:01.463Z,30.54
2017-02-20T03:05:10.944Z,30.83
2017-02-20T03:06:21.401Z,30.93
2017-02-20T03:07:30.901Z,30.83
2017-02-20T03:08:40.421Z,30.93
2017-02-20T03:09:50.753Z,30.73
2017-02-20T03:11:00.702Z,30.93
2017-02-20T03:12:10.632Z,30.83
2017-02-20T03:13:19.768Z,30.93
2017-02-20T03:14:29.303Z,31.02
2017-02-20T03:15:38.403Z,30.83
2017-02-20T03:16:47.523Z,30.52
2017-02-20T03:17:57.464Z,31.12
2017-02-20T03:19:07.444Z,30.52
2017-02-20T03:20:16.623Z,30.52
2017-02-20T03:21:26.599Z,30.82
2017-02-20T03:22:35.781Z,31.01
2017-02-20T03:23:45.544Z,30.93
2017-02-20T03:24:55.488Z,30.93
2017-02-20T03:26:05.429Z,30.62
2017-02-20T03:27:15.763Z,30.83
2017-02-20T03:28:25.335Z,30.72
2017-02-20T03:29:35.289Z,30.82
2017-02-20T03:30:44.799Z,30.72
2017-02-20T03:31:53.556Z,30.93
2017-02-20T03:33:02.703Z,30.82
2017-02-20T03:34:11.888Z,30.91
2017-02-20T03:35:21.834Z,30.72
2017-02-20T03:36:31.418Z,31.01
2017-02-20T03:37:41.376Z,31.1
2017-02-20T03:38:51.297Z,31.1
2017-02-20T03:40:01.252Z,31.01
2017-02-20T03:41:11.196Z,31.1
2017-02-20T03:42:20.761Z,31.49
2017-02-20T03:43:31.081Z,31.1
2017-02-20T03:44:39.862Z,31.2
2017-02-20T03:45:49.416Z,31.01
2017-02-20T03:46:58.593Z,31.3
2017-02-20T03:48:08.535Z,31.2
2017-02-20T03:49:18.877Z,31.3
2017-02-20T03:50:28.438Z,31.2
2017-02-20T03:51:37.933Z,31.4
2017-02-20T03:52:47.803Z,31.2
2017-02-20T03:53:57.719Z,31.3
2017-02-20T03:55:07.674Z,31.49
2017-02-20T03:56:16.854Z,31.3
2017-02-20T03:57:26.420Z,31.4
2017-02-20T03:58:36.768Z,31.3
2017-02-20T03:59:46.301Z,31.49
2017-02-20T04:00:56.191Z,31.49
2017-02-20T04:02:06.165Z,31.4
2017-02-20T04:03:16.126Z,31.2
2017-02-20T04:04:25.686Z,31.2
2017-02-20T04:05:34.888Z,31.1
2017-02-20T04:06:44.796Z,31.1
2017-02-20T04:07:53.574Z,31.1
2017-02-20T04:09:03.150Z,31.2
2017-02-20T04:10:12.319Z,31.01
2017-02-20T04:11:21.848Z,30.82
2017-02-20T04:12:32.198Z,31.2
2017-02-20T04:13:42.526Z,31.2
2017-02-20T04:14:52.869Z,31.1
2017-02-20T04:16:02.039Z,31.4
2017-02-20T04:17:12.363Z,31.2
2017-02-20T04:18:21.534Z,31.2
2017-02-20T04:19:31.112Z,31.3
2017-02-20T04:20:41.064Z,31.3
2017-02-20T04:21:50.618Z,31.2
2017-02-20T04:23:00.562Z,31.4
2017-02-20T04:24:10.094Z,31.68
2017-02-20T04:25:19.308Z,31.49
2017-02-20T04:26:29.240Z,31.49
2017-02-20T04:27:39.129Z,31.59
2017-02-20T04:28:49.080Z,31.4
2017-02-20T04:29:59.040Z,31.1
2017-02-20T04:31:09.337Z,31.59
2017-02-20T04:32:18.476Z,31.49
2017-02-20T04:33:28.027Z,31.4
2017-02-20T04:34:37.188Z,31.4
2017-02-20T04:35:46.321Z,31.3
2017-02-20T04:36:56.295Z,31.49
2017-02-20T04:38:05.477Z,31.48
2017-02-20T04:39:15.027Z,31.48
2017-02-20T04:40:24.569Z,31.48
2017-02-20T04:41:34.089Z,31.38
2017-02-20T04:42:42.859Z,31.28
2017-02-20T04:43:52.301Z,31.28
2017-02-20T04:45:02.262Z,31.28
2017-02-20T04:46:12.205Z,31.1
2017-02-20T04:47:21.007Z,31.1
2017-02-20T04:48:30.560Z,31.4
2017-02-20T04:49:40.521Z,31.48
2017-02-20T04:50:50.062Z,31.67
2017-02-20T04:51:59.162Z,31.28
2017-02-20T04:53:09.092Z,31.28
2017-02-20T04:54:18.277Z,31.48
2017-02-20T04:55:28.605Z,31.57
2017-02-20T04:56:38.187Z,31.76
2017-02-20T04:57:48.142Z,31.48
2017-02-20T04:58:57.703Z,31.48
2017-02-20T05:00:06.905Z,31.57
2017-02-20T05:01:16.446Z,31.18
2017-02-20T05:02:26.021Z,31.18
2017-02-20T05:03:35.973Z,31.38
2017-02-20T05:04:45.125Z,31.09
2017-02-20T05:05:55.563Z,31.09
2017-02-20T05:07:04.354Z,30.7
2017-02-20T05:08:13.922Z,31.09
2017-02-20T05:09:23.861Z,30.99
2017-02-20T05:10:33.811Z,31.18
2017-02-20T05:11:43.782Z,31.01
2017-02-20T05:12:53.741Z,30.8
2017-02-20T05:14:03.299Z,30.52
2017-02-20T05:15:13.201Z,30.43
2017-02-20T05:16:21.980Z,31.2
2017-02-20T05:17:31.920Z,30.52
2017-02-20T05:18:42.640Z,31.2
2017-02-20T05:19:52.666Z,30.62
2017-02-20T05:21:01.783Z,30.62
2017-02-20T05:22:10.944Z,31.1
2017-02-20T05:23:20.506Z,30.82
2017-02-20T05:24:30.449Z,30.72
2017-02-20T05:25:39.626Z,30.72
2017-02-20T05:26:49.948Z,30.72
2017-02-20T05:27:59.077Z,30.43
2017-02-20T05:29:08.246Z,30.62
2017-02-20T05:30:17.003Z,30.62
2017-02-20T05:31:26.141Z,30.72
2017-02-20T05:32:34.928Z,30.82
2017-02-20T05:33:44.881Z,30.62
2017-02-20T05:34:54.795Z,30.33
2017-02-20T05:36:05.155Z,30.44
2017-02-20T05:37:14.332Z,30.43
2017-02-20T05:38:23.897Z,30.73
2017-02-20T05:39:33.464Z,30.35
2017-02-20T05:40:43.419Z,30.83
2017-02-20T05:41:52.989Z,30.25
2017-02-20T05:43:02.944Z,30.44
2017-02-20T05:44:12.138Z,30.05
2017-02-20T05:45:21.308Z,30.35
2017-02-20T05:46:31.288Z,29.57
2017-02-20T05:47:40.855Z,29.67
2017-02-20T05:48:50.792Z,30.15
2017-02-20T05:50:00.743Z,30.25
2017-02-20T05:51:09.948Z,30.05
2017-02-20T05:52:18.744Z,29.67
2017-02-20T05:53:28.333Z,29.77
2017-02-20T05:54:37.903Z,29.67
2017-02-20T05:55:47.672Z,30.05
2017-02-20T05:56:57.221Z,29.96
2017-02-20T05:58:07.559Z,29.86
2017-02-20T05:59:17.470Z,29.86
2017-02-20T06:00:26.617Z,29.77
2017-02-20T06:01:36.173Z,29.57
2017-02-20T06:02:46.104Z,29.59
2017-02-20T06:03:55.677Z,29.19
2017-02-20T06:05:05.239Z,29.57
2017-02-20T06:06:15.173Z,29.19
2017-02-20T06:07:25.467Z,29.47
2017-02-20T06:08:34.984Z,29.49
2017-02-20T06:09:45.335Z,29.47
2017-02-20T06:10:55.650Z,29.78
2017-02-20T06:12:05.558Z,29.78
2017-02-20T06:13:15.131Z,29.78
2017-02-20T06:14:24.725Z,29.59
2017-02-20T06:15:33.930Z,29.78
2017-02-20T06:16:43.097Z,29.78
2017-02-20T06:17:52.890Z,29.69
2017-02-20T06:19:02.775Z,29.2
2017-02-20T06:20:11.909Z,29.59
2017-02-20T06:21:21.467Z,29.78
2017-02-20T06:22:31.021Z,29.59
